Aviation Digital Data Service (ADDS)

Output produced by METARs form (1848 UTC 18 April 2019)
found at http://www.aviationweather.gov/metar/data/
 
METAR text: SBSP 181800Z 21008KT CAVOK 25/12 Q1015
Conditions at: SBSP (SAO PAULO/CONGON, BR) observed 1800 UTC 18 April 2019
Temperature: 25.0°C (77°F)
Dewpoint: 12.0°C (54°F) [RH = 44%]
Pressure (altimeter): 29.97 inches Hg (1015.0 mb)
Winds: from the SSW (210 degrees) at 9 MPH (8 knots; 4.1 m/s)
Visibility: 6 or more miles (10+ km)
Ceiling: ceiling and visibility are OK
Clouds: unknown
Weather: no significant weather observed at this time

METAR text: SBSP 181700Z 22008KT CAVOK 24/12 Q1016
Conditions at: SBSP (SAO PAULO/CONGON, BR) observed 1700 UTC 18 April 2019
Temperature: 24.0°C (75°F)
Dewpoint: 12.0°C (54°F) [RH = 47%]
Pressure (altimeter): 30.00 inches Hg (1016.0 mb)
Winds: from the SW (220 degrees) at 9 MPH (8 knots; 4.1 m/s)
Visibility: 6 or more miles (10+ km)
Ceiling: ceiling and visibility are OK
Clouds: unknown
Weather: no significant weather observed at this time

METAR text: SBSP 181600Z 23008KT 9999 SCT027 24/14 Q1017
Conditions at: SBSP (SAO PAULO/CONGON, BR) observed 1600 UTC 18 April 2019
Temperature: 24.0°C (75°F)
Dewpoint: 14.0°C (57°F) [RH = 54%]
Pressure (altimeter): 30.03 inches Hg (1017.0 mb)
Winds: from the SW (230 degrees) at 9 MPH (8 knots; 4.1 m/s)
Visibility: 6 or more miles (10+ km)
Ceiling: at least 12,000 feet AGL
Clouds: scattered clouds at 2700 feet AGL
Weather: no significant weather observed at this time

METAR text: SBSP 181500Z 21006KT 9999 FEW023 23/14 Q1018
Conditions at: SBSP (SAO PAULO/CONGON, BR) observed 1500 UTC 18 April 2019
Temperature: 23.0°C (73°F)
Dewpoint: 14.0°C (57°F) [RH = 57%]
Pressure (altimeter): 30.06 inches Hg (1018.0 mb)
Winds: from the SSW (210 degrees) at 7 MPH (6 knots; 3.1 m/s)
Visibility: 6 or more miles (10+ km)
Ceiling: at least 12,000 feet AGL
Clouds: few clouds at 2300 feet AGL
Weather: no significant weather observed at this time

METAR text: SBSP 181400Z 26004KT 9999 FEW020 22/14 Q1018
Conditions at: SBSP (SAO PAULO/CONGON, BR) observed 1400 UTC 18 April 2019
Temperature: 22.0°C (72°F)
Dewpoint: 14.0°C (57°F) [RH = 60%]
Pressure (altimeter): 30.06 inches Hg (1018.0 mb)
Winds: from the W (260 degrees) at 5 MPH (4 knots; 2.1 m/s)
Visibility: 6 or more miles (10+ km)
Ceiling: at least 12,000 feet AGL
Clouds: few clouds at 2000 feet AGL
Weather: no significant weather observed at this time

METAR text: SBSP 181300Z 18004KT 9999 FEW019 21/15 Q1018
Conditions at: SBSP (SAO PAULO/CONGON, BR) observed 1300 UTC 18 April 2019
Temperature: 21.0°C (70°F)
Dewpoint: 15.0°C (59°F) [RH = 69%]
Pressure (altimeter): 30.06 inches Hg (1018.0 mb)
Winds: from the S (180 degrees) at 5 MPH (4 knots; 2.1 m/s)
Visibility: 6 or more miles (10+ km)
Ceiling: at least 12,000 feet AGL
Clouds: few clouds at 1900 feet AGL
Weather: no significant weather observed at this time

METAR text: SBSP 181200Z 24005KT 210V280 9999 FEW013 19/14 Q1018
Conditions at: SBSP (SAO PAULO/CONGON, BR) observed 1200 UTC 18 April 2019
Temperature: 19.0°C (66°F)
Dewpoint: 14.0°C (57°F) [RH = 73%]
Pressure (altimeter): 30.06 inches Hg (1018.0 mb)
Winds: from the WSW (240 degrees) at 6 MPH (5 knots; 2.6 m/s)
Visibility: 6 or more miles (10+ km)
Ceiling: at least 12,000 feet AGL
Clouds: few clouds at 1300 feet AGL
Weather: no significant weather observed at this time

METAR text: SBSP 181100Z 22004KT 9999 FEW012 19/15 Q1017
Conditions at: SBSP (SAO PAULO/CONGON, BR) observed 1100 UTC 18 April 2019
Temperature: 19.0°C (66°F)
Dewpoint: 15.0°C (59°F) [RH = 78%]
Pressure (altimeter): 30.03 inches Hg (1017.0 mb)
Winds: from the SW (220 degrees) at 5 MPH (4 knots; 2.1 m/s)
Visibility: 6 or more miles (10+ km)
Ceiling: at least 12,000 feet AGL
Clouds: few clouds at 1200 feet AGL
Weather: no significant weather observed at this time

METAR text: SBSP 181035Z 22004KT 9999 FEW011 18/14 Q1017
Conditions at: SBSP (SAO PAULO/CONGON, BR) observed 1035 UTC 18 April 2019
Temperature: 18.0°C (64°F)
Dewpoint: 14.0°C (57°F) [RH = 77%]
Pressure (altimeter): 30.03 inches Hg (1017.0 mb)
Winds: from the SW (220 degrees) at 5 MPH (4 knots; 2.1 m/s)
Visibility: 6 or more miles (10+ km)
Ceiling: at least 12,000 feet AGL
Clouds: few clouds at 1100 feet AGL
Weather: no significant weather observed at this time

METAR text: SBSP 181013Z 19004KT 9999 BKN009 18/15 Q1017
Conditions at: SBSP (SAO PAULO/CONGON, BR) observed 1013 UTC 18 April 2019
Temperature: 18.0°C (64°F)
Dewpoint: 15.0°C (59°F) [RH = 83%]
Pressure (altimeter): 30.03 inches Hg (1017.0 mb)
Winds: from the S (190 degrees) at 5 MPH (4 knots; 2.1 m/s)
Visibility: 6 or more miles (10+ km)
Ceiling: 900 feet AGL
Clouds: broken clouds at 900 feet AGL
Weather: no significant weather observed at this time

METAR text: SBSP 181000Z 18005KT 9999 SCT011 17/14 Q1017
Conditions at: SBSP (SAO PAULO/CONGON, BR) observed 1000 UTC 18 April 2019
Temperature: 17.0°C (63°F)
Dewpoint: 14.0°C (57°F) [RH = 82%]
Pressure (altimeter): 30.03 inches Hg (1017.0 mb)
Winds: from the S (180 degrees) at 6 MPH (5 knots; 2.6 m/s)
Visibility: 6 or more miles (10+ km)
Ceiling: at least 12,000 feet AGL
Clouds: scattered clouds at 1100 feet AGL
Weather: no significant weather observed at this time

METAR text: SBSP 180900Z 16003KT CAVOK 16/13 Q1016
Conditions at: SBSP (SAO PAULO/CONGON, BR) observed 0900 UTC 18 April 2019
Temperature: 16.0°C (61°F)
Dewpoint: 13.0°C (55°F) [RH = 82%]
Pressure (altimeter): 30.00 inches Hg (1016.0 mb)
Winds: from the SSE (160 degrees) at 3 MPH (3 knots; 1.5 m/s)
Visibility: 6 or more miles (10+ km)
Ceiling: ceiling and visibility are OK
Clouds: unknown
Weather: no significant weather observed at this time

METAR text: SBSP 180800Z AUTO 20003KT CAVOK 17/14 Q1015
Conditions at: SBSP (SAO PAULO/CONGON, BR) observed 0800 UTC 18 April 2019
Temperature: 17.0°C (63°F)
Dewpoint: 14.0°C (57°F) [RH = 82%]
Pressure (altimeter): 29.97 inches Hg (1015.0 mb)
Winds: from the SSW (200 degrees) at 3 MPH (3 knots; 1.5 m/s)
Visibility: 6 or more miles (10+ km)
Ceiling: ceiling and visibility are OK
Clouds: unknown
Weather: no significant weather observed at this time

METAR text: SBSP 180700Z AUTO 18003KT CAVOK 17/13 Q1015
Conditions at: SBSP (SAO PAULO/CONGON, BR) observed 0700 UTC 18 April 2019
Temperature: 17.0°C (63°F)
Dewpoint: 13.0°C (55°F) [RH = 77%]
Pressure (altimeter): 29.97 inches Hg (1015.0 mb)
Winds: from the S (180 degrees) at 3 MPH (3 knots; 1.5 m/s)
Visibility: 6 or more miles (10+ km)
Ceiling: ceiling and visibility are OK
Clouds: unknown
Weather: no significant weather observed at this time

METAR text: SBSP 180600Z AUTO 19004KT CAVOK 18/13 Q1016
Conditions at: SBSP (SAO PAULO/CONGON, BR) observed 0600 UTC 18 April 2019
Temperature: 18.0°C (64°F)
Dewpoint: 13.0°C (55°F) [RH = 73%]
Pressure (altimeter): 30.00 inches Hg (1016.0 mb)
Winds: from the S (190 degrees) at 5 MPH (4 knots; 2.1 m/s)
Visibility: 6 or more miles (10+ km)
Ceiling: ceiling and visibility are OK
Clouds: unknown
Weather: no significant weather observed at this time

METAR text: SBSP 180500Z AUTO 19005KT 9999 SCT026 18/14 Q1016
Conditions at: SBSP (SAO PAULO/CONGON, BR) observed 0500 UTC 18 April 2019
Temperature: 18.0°C (64°F)
Dewpoint: 14.0°C (57°F) [RH = 77%]
Pressure (altimeter): 30.00 inches Hg (1016.0 mb)
Winds: from the S (190 degrees) at 6 MPH (5 knots; 2.6 m/s)
Visibility: 6 or more miles (10+ km)
Ceiling: at least 12,000 feet AGL
Clouds: scattered clouds at 2600 feet AGL
Weather: no significant weather observed at this time

METAR text: SBSP 180400Z AUTO 18005KT 9999 FEW015 18/15 Q1016
Conditions at: SBSP (SAO PAULO/CONGON, BR) observed 0400 UTC 18 April 2019
Temperature: 18.0°C (64°F)
Dewpoint: 15.0°C (59°F) [RH = 83%]
Pressure (altimeter): 30.00 inches Hg (1016.0 mb)
Winds: from the S (180 degrees) at 6 MPH (5 knots; 2.6 m/s)
Visibility: 6 or more miles (10+ km)
Ceiling: at least 12,000 feet AGL
Clouds: few clouds at 1500 feet AGL
Weather: no significant weather observed at this time

METAR text: SBSP 180300Z AUTO 18004KT CAVOK 19/16 Q1017
Conditions at: SBSP (SAO PAULO/CONGON, BR) observed 0300 UTC 18 April 2019
Temperature: 19.0°C (66°F)
Dewpoint: 16.0°C (61°F) [RH = 83%]
Pressure (altimeter): 30.03 inches Hg (1017.0 mb)
Winds: from the S (180 degrees) at 5 MPH (4 knots; 2.1 m/s)
Visibility: 6 or more miles (10+ km)
Ceiling: ceiling and visibility are OK
Clouds: unknown
Weather: no significant weather observed at this time

METAR text: SBSP 180202Z 17005KT CAVOK 19/16 Q1017
Conditions at: SBSP (SAO PAULO/CONGON, BR) observed 0202 UTC 18 April 2019
Temperature: 19.0°C (66°F)
Dewpoint: 16.0°C (61°F) [RH = 83%]
Pressure (altimeter): 30.03 inches Hg (1017.0 mb)
Winds: from the S (170 degrees) at 6 MPH (5 knots; 2.6 m/s)
Visibility: 6 or more miles (10+ km)
Ceiling: ceiling and visibility are OK
Clouds: unknown
Weather: no significant weather observed at this time

METAR text: SBSP 180200Z 17006KT CAVOK 19/16 Q1017
Conditions at: SBSP (SAO PAULO/CONGON, BR) observed 0200 UTC 18 April 2019
Temperature: 19.0°C (66°F)
Dewpoint: 16.0°C (61°F) [RH = 83%]
Pressure (altimeter): 30.03 inches Hg (1017.0 mb)
Winds: from the S (170 degrees) at 7 MPH (6 knots; 3.1 m/s)
Visibility: 6 or more miles (10+ km)
Ceiling: ceiling and visibility are OK
Clouds: unknown
Weather: no significant weather observed at this time

METAR text: SBSP 180100Z 15002KT 9999 FEW009 SCT080 20/17 Q1017
Conditions at: SBSP (SAO PAULO/CONGON, BR) observed 0100 UTC 18 April 2019
Temperature: 20.0°C (68°F)
Dewpoint: 17.0°C (63°F) [RH = 83%]
Pressure (altimeter): 30.03 inches Hg (1017.0 mb)
Winds: from the SSE (150 degrees) at 2 MPH (2 knots; 1.0 m/s)
Visibility: 6 or more miles (10+ km)
Ceiling: at least 12,000 feet AGL
Clouds: few clouds at 900 feet AGL
scattered clouds at 8000 feet AGL
Weather: no significant weather observed at this time

METAR text: SBSP 180000Z 16004KT 9999 FEW017 SCT080 20/17 Q1017
Conditions at: SBSP (SAO PAULO/CONGON, BR) observed 0000 UTC 18 April 2019
Temperature: 20.0°C (68°F)
Dewpoint: 17.0°C (63°F) [RH = 83%]
Pressure (altimeter): 30.03 inches Hg (1017.0 mb)
Winds: from the SSE (160 degrees) at 5 MPH (4 knots; 2.1 m/s)
Visibility: 6 or more miles (10+ km)
Ceiling: at least 12,000 feet AGL
Clouds: few clouds at 1700 feet AGL
scattered clouds at 8000 feet AGL
Weather: no significant weather observed at this time

METAR text: SBSP 172300Z 18005KT 9999 SCT012 20/17 Q1016
Conditions at: SBSP (SAO PAULO/CONGON, BR) observed 2300 UTC 17 April 2019
Temperature: 20.0°C (68°F)
Dewpoint: 17.0°C (63°F) [RH = 83%]
Pressure (altimeter): 30.00 inches Hg (1016.0 mb)
Winds: from the S (180 degrees) at 6 MPH (5 knots; 2.6 m/s)
Visibility: 6 or more miles (10+ km)
Ceiling: at least 12,000 feet AGL
Clouds: scattered clouds at 1200 feet AGL
Weather: no significant weather observed at this time

METAR text: SBSP 172249Z 18005KT 9999 SCT011 21/18 Q1016
Conditions at: SBSP (SAO PAULO/CONGON, BR) observed 2249 UTC 17 April 2019
Temperature: 21.0°C (70°F)
Dewpoint: 18.0°C (64°F) [RH = 83%]
Pressure (altimeter): 30.00 inches Hg (1016.0 mb)
Winds: from the S (180 degrees) at 6 MPH (5 knots; 2.6 m/s)
Visibility: 6 or more miles (10+ km)
Ceiling: at least 12,000 feet AGL
Clouds: scattered clouds at 1100 feet AGL
Weather: no significant weather observed at this time

METAR text: SBSP 172200Z 17010KT 9999 BKN009 21/18 Q1015
Conditions at: SBSP (SAO PAULO/CONGON, BR) observed 2200 UTC 17 April 2019
Temperature: 21.0°C (70°F)
Dewpoint: 18.0°C (64°F) [RH = 83%]
Pressure (altimeter): 29.97 inches Hg (1015.0 mb)
Winds: from the S (170 degrees) at 12 MPH (10 knots; 5.1 m/s)
Visibility: 6 or more miles (10+ km)
Ceiling: 900 feet AGL
Clouds: broken clouds at 900 feet AGL
Weather: no significant weather observed at this time

METAR text: SBSP 172100Z 18010KT 9999 BKN009 22/18 Q1015
Conditions at: SBSP (SAO PAULO/CONGON, BR) observed 2100 UTC 17 April 2019
Temperature: 22.0°C (72°F)
Dewpoint: 18.0°C (64°F) [RH = 78%]
Pressure (altimeter): 29.97 inches Hg (1015.0 mb)
Winds: from the S (180 degrees) at 12 MPH (10 knots; 5.1 m/s)
Visibility: 6 or more miles (10+ km)
Ceiling: 900 feet AGL
Clouds: broken clouds at 900 feet AGL
Weather: no significant weather observed at this time

METAR text: SBSP 172045Z 18009KT 9999 BKN011 22/18 Q1015
Conditions at: SBSP (SAO PAULO/CONGON, BR) observed 2045 UTC 17 April 2019
Temperature: 22.0°C (72°F)
Dewpoint: 18.0°C (64°F) [RH = 78%]
Pressure (altimeter): 29.97 inches Hg (1015.0 mb)
Winds: from the S (180 degrees) at 10 MPH (9 knots; 4.6 m/s)
Visibility: 6 or more miles (10+ km)
Ceiling: 1100 feet AGL
Clouds: broken clouds at 1100 feet AGL
Weather: no significant weather observed at this time

METAR text: SBSP 172000Z 20008KT 9999 SCT017 SCT045 23/18 Q1014
Conditions at: SBSP (SAO PAULO/CONGON, BR) observed 2000 UTC 17 April 2019
Temperature: 23.0°C (73°F)
Dewpoint: 18.0°C (64°F) [RH = 73%]
Pressure (altimeter): 29.94 inches Hg (1014.0 mb)
Winds: from the SSW (200 degrees) at 9 MPH (8 knots; 4.1 m/s)
Visibility: 6 or more miles (10+ km)
Ceiling: at least 12,000 feet AGL
Clouds: scattered clouds at 1700 feet AGL
scattered clouds at 4500 feet AGL
Weather: no significant weather observed at this time

METAR text: SBSP 171900Z 29010KT 9999 BKN040 26/14 Q1014
Conditions at: SBSP (SAO PAULO/CONGON, BR) observed 1900 UTC 17 April 2019
Temperature: 26.0°C (79°F)
Dewpoint: 14.0°C (57°F) [RH = 48%]
Pressure (altimeter): 29.94 inches Hg (1014.0 mb)
Winds: from the WNW (290 degrees) at 12 MPH (10 knots; 5.1 m/s)
Visibility: 6 or more miles (10+ km)
Ceiling: 4000 feet AGL
Clouds: broken clouds at 4000 feet AGL
Weather: no significant weather observed at this time

METAR text: SBSP 171800Z 31010KT 9999 BKN040 26/14 Q1014
Conditions at: SBSP (SAO PAULO/CONGON, BR) observed 1800 UTC 17 April 2019
Temperature: 26.0°C (79°F)
Dewpoint: 14.0°C (57°F) [RH = 48%]
Pressure (altimeter): 29.94 inches Hg (1014.0 mb)
Winds: from the NW (310 degrees) at 12 MPH (10 knots; 5.1 m/s)
Visibility: 6 or more miles (10+ km)
Ceiling: 4000 feet AGL
Clouds: broken clouds at 4000 feet AGL
Weather: no significant weather observed at this time

METAR text: SBSP 171700Z 31012KT 9999 BKN035 27/15 Q1014
Conditions at: SBSP (SAO PAULO/CONGON, BR) observed 1700 UTC 17 April 2019
Temperature: 27.0°C (81°F)
Dewpoint: 15.0°C (59°F) [RH = 48%]
Pressure (altimeter): 29.94 inches Hg (1014.0 mb)
Winds: from the NW (310 degrees) at 14 MPH (12 knots; 6.2 m/s)
Visibility: 6 or more miles (10+ km)
Ceiling: 3500 feet AGL
Clouds: broken clouds at 3500 feet AGL
Weather: no significant weather observed at this time

METAR text: SBSP 171600Z 31009KT 260V360 9999 FEW030 SCT037 26/16 Q1015
Conditions at: SBSP (SAO PAULO/CONGON, BR) observed 1600 UTC 17 April 2019
Temperature: 26.0°C (79°F)
Dewpoint: 16.0°C (61°F) [RH = 54%]
Pressure (altimeter): 29.97 inches Hg (1015.0 mb)
Winds: from the NW (310 degrees) at 10 MPH (9 knots; 4.6 m/s)
Visibility: 6 or more miles (10+ km)
Ceiling: at least 12,000 feet AGL
Clouds: few clouds at 3000 feet AGL
scattered clouds at 3700 feet AGL
Weather: no significant weather observed at this time

METAR text: SBSP 171500Z 27005KT 220V330 9999 FEW027 SCT037 25/17 Q1016
Conditions at: SBSP (SAO PAULO/CONGON, BR) observed 1500 UTC 17 April 2019
Temperature: 25.0°C (77°F)
Dewpoint: 17.0°C (63°F) [RH = 61%]
Pressure (altimeter): 30.00 inches Hg (1016.0 mb)
Winds: from the W (270 degrees) at 6 MPH (5 knots; 2.6 m/s)
Visibility: 6 or more miles (10+ km)
Ceiling: at least 12,000 feet AGL
Clouds: few clouds at 2700 feet AGL
scattered clouds at 3700 feet AGL
Weather: no significant weather observed at this time

METAR text: SBSP 171400Z VRB03KT 9999 FEW013 SCT017 BKN033 23/18 Q1017
Conditions at: SBSP (SAO PAULO/CONGON, BR) observed 1400 UTC 17 April 2019
Temperature: 23.0°C (73°F)
Dewpoint: 18.0°C (64°F) [RH = 73%]
Pressure (altimeter): 30.03 inches Hg (1017.0 mb)
Winds: variable direction winds at 3 MPH (3 knots; 1.5 m/s)
Visibility: 6 or more miles (10+ km)
Ceiling: 3300 feet AGL
Clouds: few clouds at 1300 feet AGL
scattered clouds at 1700 feet AGL
broken clouds at 3300 feet AGL
Weather: no significant weather observed at this time

METAR text: SBSP 171300Z VRB03KT 9999 FEW010 SCT019 22/18 Q1017
Conditions at: SBSP (SAO PAULO/CONGON, BR) observed 1300 UTC 17 April 2019
Temperature: 22.0°C (72°F)
Dewpoint: 18.0°C (64°F) [RH = 78%]
Pressure (altimeter): 30.03 inches Hg (1017.0 mb)
Winds: variable direction winds at 3 MPH (3 knots; 1.5 m/s)
Visibility: 6 or more miles (10+ km)
Ceiling: at least 12,000 feet AGL
Clouds: few clouds at 1000 feet AGL
scattered clouds at 1900 feet AGL
Weather: no significant weather observed at this time

METAR text: SBSP 171200Z 19006KT 9999 FEW007 SCT013 BKN021 21/18 Q1017
Conditions at: SBSP (SAO PAULO/CONGON, BR) observed 1200 UTC 17 April 2019
Temperature: 21.0°C (70°F)
Dewpoint: 18.0°C (64°F) [RH = 83%]
Pressure (altimeter): 30.03 inches Hg (1017.0 mb)
Winds: from the S (190 degrees) at 7 MPH (6 knots; 3.1 m/s)
Visibility: 6 or more miles (10+ km)
Ceiling: 2100 feet AGL
Clouds: few clouds at 700 feet AGL
scattered clouds at 1300 feet AGL
broken clouds at 2100 feet AGL
Weather: no significant weather observed at this time

METAR text: SBSP 171146Z VRB04KT 9999 FEW007 SCT013 21/17 Q1017
Conditions at: SBSP (SAO PAULO/CONGON, BR) observed 1146 UTC 17 April 2019
Temperature: 21.0°C (70°F)
Dewpoint: 17.0°C (63°F) [RH = 78%]
Pressure (altimeter): 30.03 inches Hg (1017.0 mb)
Winds: variable direction winds at 5 MPH (4 knots; 2.1 m/s)
Visibility: 6 or more miles (10+ km)
Ceiling: at least 12,000 feet AGL
Clouds: few clouds at 700 feet AGL
scattered clouds at 1300 feet AGL
Weather: no significant weather observed at this time

METAR text: SBSP 171100Z 32004KT 280V010 9999 SCT008 BKN013 20/17 Q1017
Conditions at: SBSP (SAO PAULO/CONGON, BR) observed 1100 UTC 17 April 2019
Temperature: 20.0°C (68°F)
Dewpoint: 17.0°C (63°F) [RH = 83%]
Pressure (altimeter): 30.03 inches Hg (1017.0 mb)
Winds: from the NW (320 degrees) at 5 MPH (4 knots; 2.1 m/s)
Visibility: 6 or more miles (10+ km)
Ceiling: 1300 feet AGL
Clouds: scattered clouds at 800 feet AGL
broken clouds at 1300 feet AGL
Weather: no significant weather observed at this time

METAR text: SBSP 171000Z 34003KT 9999 FEW005 SCT008 BKN011 20/17 Q1016
Conditions at: SBSP (SAO PAULO/CONGON, BR) observed 1000 UTC 17 April 2019
Temperature: 20.0°C (68°F)
Dewpoint: 17.0°C (63°F) [RH = 83%]
Pressure (altimeter): 30.00 inches Hg (1016.0 mb)
Winds: from the NNW (340 degrees) at 3 MPH (3 knots; 1.5 m/s)
Visibility: 6 or more miles (10+ km)
Ceiling: 1100 feet AGL
Clouds: few clouds at 500 feet AGL
scattered clouds at 800 feet AGL
broken clouds at 1100 feet AGL
Weather: no significant weather observed at this time

METAR text: SBSP 170900Z 25004KT 9999 BKN007 SCT027 19/17 Q1016
Conditions at: SBSP (SAO PAULO/CONGON, BR) observed 0900 UTC 17 April 2019
Temperature: 19.0°C (66°F)
Dewpoint: 17.0°C (63°F) [RH = 88%]
Pressure (altimeter): 30.00 inches Hg (1016.0 mb)
Winds: from the WSW (250 degrees) at 5 MPH (4 knots; 2.1 m/s)
Visibility: 6 or more miles (10+ km)
Ceiling: 700 feet AGL
Clouds: broken clouds at 700 feet AGL
scattered clouds at 2700 feet AGL
Weather: no significant weather observed at this time

METAR text: SBSP 170825Z AUTO 24004KT 170V280 9999 BKN006 BKN030 20/17 Q1015
Conditions at: SBSP (SAO PAULO/CONGON, BR) observed 0825 UTC 17 April 2019
Temperature: 20.0°C (68°F)
Dewpoint: 17.0°C (63°F) [RH = 83%]
Pressure (altimeter): 29.97 inches Hg (1015.0 mb)
Winds: from the WSW (240 degrees) at 5 MPH (4 knots; 2.1 m/s)
Visibility: 6 or more miles (10+ km)
Ceiling: 600 feet AGL
Clouds: broken clouds at 600 feet AGL
broken clouds at 3000 feet AGL
Weather: no significant weather observed at this time

METAR text: SBSP 170813Z AUTO 22005KT 170V250 9999 BKN007 BKN009 BKN030 20/17 Q1015
Conditions at: SBSP (SAO PAULO/CONGON, BR) observed 0813 UTC 17 April 2019
Temperature: 20.0°C (68°F)
Dewpoint: 17.0°C (63°F) [RH = 83%]
Pressure (altimeter): 29.97 inches Hg (1015.0 mb)
Winds: from the SW (220 degrees) at 6 MPH (5 knots; 2.6 m/s)
Visibility: 6 or more miles (10+ km)
Ceiling: 700 feet AGL
Clouds: broken clouds at 700 feet AGL
broken clouds at 900 feet AGL
broken clouds at 3000 feet AGL
Weather: no significant weather observed at this time

METAR text: SBSP 170800Z AUTO 24003KT 9999 FEW007 BKN009 BKN025 19/17Q1015
Conditions at: SBSP (SAO PAULO/CONGON, BR) observed 0800 UTC 17 April 2019
Temperature: missing
Dewpoint: missing
Pressure (altimeter): 29.97 inches Hg (1015.0 mb)
Winds: from the WSW (240 degrees) at 3 MPH (3 knots; 1.5 m/s)
Visibility: 6 or more miles (10+ km)
Ceiling: 900 feet AGL
Clouds: few clouds at 700 feet AGL
broken clouds at 900 feet AGL
broken clouds at 2500 feet AGL
Weather: no significant weather observed at this time

METAR text: SBSP 170754Z AUTO 24003KT 9999 FEW007 BKN009 BKN025 19/17 Q1015
Conditions at: SBSP (SAO PAULO/CONGON, BR) observed 0754 UTC 17 April 2019
Temperature: 19.0°C (66°F)
Dewpoint: 17.0°C (63°F) [RH = 88%]
Pressure (altimeter): 29.97 inches Hg (1015.0 mb)
Winds: from the WSW (240 degrees) at 3 MPH (3 knots; 1.5 m/s)
Visibility: 6 or more miles (10+ km)
Ceiling: 900 feet AGL
Clouds: few clouds at 700 feet AGL
broken clouds at 900 feet AGL
broken clouds at 2500 feet AGL
Weather: no significant weather observed at this time

METAR text: SBSP 170737Z AUTO VRB02KT 9999 SCT007 BKN009 OVC013 19/17 Q1015
Conditions at: SBSP (SAO PAULO/CONGON, BR) observed 0737 UTC 17 April 2019
Temperature: 19.0°C (66°F)
Dewpoint: 17.0°C (63°F) [RH = 88%]
Pressure (altimeter): 29.97 inches Hg (1015.0 mb)
Winds: variable direction winds at 2 MPH (2 knots; 1.0 m/s)
Visibility: 6 or more miles (10+ km)
Ceiling: 900 feet AGL
Clouds: scattered clouds at 700 feet AGL
broken clouds at 900 feet AGL
overcast cloud deck at 1300 feet AGL
Weather: no significant weather observed at this time

METAR text: SBSP 170716Z AUTO VRB02KT 9999 BKN007 OVC009 19/17 Q1015
Conditions at: SBSP (SAO PAULO/CONGON, BR) observed 0716 UTC 17 April 2019
Temperature: 19.0°C (66°F)
Dewpoint: 17.0°C (63°F) [RH = 88%]
Pressure (altimeter): 29.97 inches Hg (1015.0 mb)
Winds: variable direction winds at 2 MPH (2 knots; 1.0 m/s)
Visibility: 6 or more miles (10+ km)
Ceiling: 700 feet AGL
Clouds: broken clouds at 700 feet AGL
overcast cloud deck at 900 feet AGL
Weather: no significant weather observed at this time

METAR text: SBSP 170706Z AUTO 22004KT 190V260 9999 BKN008 BKN014 BKN017 19/17 Q1015
Conditions at: SBSP (SAO PAULO/CONGON, BR) observed 0706 UTC 17 April 2019
Temperature: 19.0°C (66°F)
Dewpoint: 17.0°C (63°F) [RH = 88%]
Pressure (altimeter): 29.97 inches Hg (1015.0 mb)
Winds: from the SW (220 degrees) at 5 MPH (4 knots; 2.1 m/s)
Visibility: 6 or more miles (10+ km)
Ceiling: 800 feet AGL
Clouds: broken clouds at 800 feet AGL
broken clouds at 1400 feet AGL
broken clouds at 1700 feet AGL
Weather: no significant weather observed at this time

METAR text: SBSP 170700Z AUTO VRB04KT 9999 BKN009 BKN018 19/17 Q1015
Conditions at: SBSP (SAO PAULO/CONGON, BR) observed 0700 UTC 17 April 2019
Temperature: 19.0°C (66°F)
Dewpoint: 17.0°C (63°F) [RH = 88%]
Pressure (altimeter): 29.97 inches Hg (1015.0 mb)
Winds: variable direction winds at 5 MPH (4 knots; 2.1 m/s)
Visibility: 6 or more miles (10+ km)
Ceiling: 900 feet AGL
Clouds: broken clouds at 900 feet AGL
broken clouds at 1800 feet AGL
Weather: no significant weather observed at this time

METAR text: SBSP 170655Z AUTO VRB04KT 9999 BKN009 BKN018 19/17 Q1015
Conditions at: SBSP (SAO PAULO/CONGON, BR) observed 0655 UTC 17 April 2019
Temperature: 19.0°C (66°F)
Dewpoint: 17.0°C (63°F) [RH = 88%]
Pressure (altimeter): 29.97 inches Hg (1015.0 mb)
Winds: variable direction winds at 5 MPH (4 knots; 2.1 m/s)
Visibility: 6 or more miles (10+ km)
Ceiling: 900 feet AGL
Clouds: broken clouds at 900 feet AGL
broken clouds at 1800 feet AGL
Weather: no significant weather observed at this time

Forecast for: SBSP (SAO PAULO/CONGON, BR)
Text: TAF SBSP 181630Z 1818/1918 21008KT 8000 FEW040 TN16/1908Z TX26/1917Z
Forecast period: 1800 to 1900 UTC 18 April 2019
Forecast type: FROM: standard forecast or significant change
Winds: from the SSW (210 degrees) at 9 MPH (8 knots; 4.1 m/s)
Visibility: 5 miles (8 km)
Ceiling: at least 12,000 feet AGL
Clouds: few clouds at 4000 feet AGL
Weather: no significant weather forecast for this period
Text: BECMG 1819/1821 18009KT FEW015
Forecast period: 1900 UTC 18 April 2019 to 0100 UTC 19 April 2019
Forecast type: BECOMING: Conditions expected to become as follows by 2100 UTC 18 April 2019
Winds: from the S (180 degrees) at 10 MPH (9 knots; 4.6 m/s)
Visibility: 5 miles (8 km)
Ceiling: at least 12,000 feet AGL
Clouds: few clouds at 1500 feet AGL
Weather: no significant weather forecast for this period
Text: PROB30 1821/1823 BKN011
Forecast period: 2100 to 2300 UTC 18 April 2019
Forecast type: PROBABLE: 30 percent likelihood of the following during this time
Visibility: missing
Ceiling: 1100 feet AGL
Clouds: broken clouds at 1100 feet AGL
Weather: no significant weather forecast for this period
Text: BECMG 1901/1902 15003KT NSC
Forecast period: 0100 to 1300 UTC 19 April 2019
Forecast type: BECOMING: Conditions expected to become as follows by 0200 UTC 19 April 2019
Winds: from the SSE (150 degrees) at 3 MPH (3 knots; 1.5 m/s)
Visibility: 5 miles (8 km)
Ceiling: unknown
Clouds: missing
Weather: no significant weather forecast for this period
Text: BECMG 1913/1915 FEW023
Forecast period: 1300 to 1500 UTC 19 April 2019
Forecast type: BECOMING: Conditions expected to become as follows by 1500 UTC 19 April 2019
Winds: from the SSE (150 degrees) at 3 MPH (3 knots; 1.5 m/s)
Visibility: 5 miles (8 km)
Ceiling: at least 12,000 feet AGL
Clouds: few clouds at 2300 feet AGL
Weather: no significant weather forecast for this period
Text: BECMG 1915/1917 26008KT FEW035 RMK PHG
Forecast period: 1500 to 1800 UTC 19 April 2019
Forecast type: BECOMING: Conditions expected to become as follows by 1700 UTC 19 April 2019
Winds: from the W (260 degrees) at 9 MPH (8 knots; 4.1 m/s)
Visibility: 5 miles (8 km)
Ceiling: at least 12,000 feet AGL
Clouds: few clouds at 3500 feet AGL
Weather: no significant weather forecast for this period